createdAt,value
2019-01-17T00:00:04.725Z,1.60
2019-01-17T00:02:51.913Z,1.60
2019-01-17T00:06:00.959Z,1.70
2019-01-17T00:08:57.320Z,1.80
2019-01-17T00:11:48.327Z,1.80
2019-01-17T00:14:35.997Z,1.70
2019-01-17T00:17:18.855Z,1.80
2019-01-17T00:20:12.944Z,1.80
2019-01-17T00:23:07.037Z,1.70
2019-01-17T00:25:58.133Z,1.80
2019-01-17T00:28:53.620Z,1.90
2019-01-17T00:31:47.575Z,1.90
2019-01-17T00:34:36.905Z,1.80
2019-01-17T00:37:34.131Z,1.70
2019-01-17T00:40:31.267Z,1.70
2019-01-17T00:43:20.869Z,1.60
2019-01-17T00:46:00.670Z,1.50
2019-01-17T00:49:06.508Z,1.30
2019-01-17T00:52:09.858Z,1.20
2019-01-17T00:54:59.420Z,1.30
2019-01-17T00:57:42.929Z,1.30
2019-01-17T01:00:34.309Z,1.30
2019-01-17T01:03:17.595Z,1.20
2019-01-17T01:06:07.151Z,1.20
2019-01-17T01:09:07.123Z,1.20
2019-01-17T01:11:58.397Z,1.20
2019-01-17T01:14:48.146Z,1.30
2019-01-17T01:17:45.119Z,1.40
2019-01-17T01:20:45.462Z,1.40
2019-01-17T01:23:39.471Z,1.40
2019-01-17T01:26:30.530Z,1.50
2019-01-17T01:29:19.859Z,1.60
2019-01-17T01:32:10.706Z,1.60
2019-01-17T01:34:51.173Z,1.60
2019-01-17T01:37:40.954Z,1.70
2019-01-17T01:40:50.432Z,1.80
2019-01-17T01:43:44.199Z,2.00
2019-01-17T01:46:35.389Z,2.10
2019-01-17T01:49:16.755Z,2.20
2019-01-17T01:52:06.454Z,2.30
2019-01-17T01:54:38.898Z,2.40
2019-01-17T01:57:11.228Z,2.50
2019-01-17T01:59:43.559Z,2.60
2019-01-17T02:02:15.877Z,2.70
2019-01-17T02:04:48.102Z,2.80
2019-01-17T02:07:20.430Z,2.80
2019-01-17T02:09:52.744Z,2.80
2019-01-17T02:12:24.944Z,2.90
2019-01-17T02:14:57.151Z,2.90
2019-01-17T02:17:29.840Z,3.00
2019-01-17T02:20:02.724Z,3.00
2019-01-17T02:22:35.024Z,3.10
2019-01-17T02:25:08.616Z,3.10
2019-01-17T02:27:40.926Z,3.10
2019-01-17T02:30:15.352Z,3.20
2019-01-17T02:32:47.557Z,3.20
2019-01-17T02:35:20.065Z,3.30
2019-01-17T02:37:52.270Z,3.30
2019-01-17T02:40:24.783Z,3.30
2019-01-17T02:42:57.293Z,3.40
2019-01-17T02:45:29.615Z,3.40
2019-01-17T02:48:02.026Z,3.40
2019-01-17T02:50:34.336Z,3.40
2019-01-17T02:53:06.844Z,3.40
2019-01-17T02:55:39.191Z,3.40
2019-01-17T02:58:11.602Z,3.50
2019-01-17T03:00:43.857Z,3.50
2019-01-17T03:03:16.340Z,3.50
2019-01-17T03:05:48.647Z,3.60
2019-01-17T03:08:21.058Z,3.70
2019-01-17T03:10:53.473Z,3.80
2019-01-17T03:13:25.891Z,3.90
2019-01-17T03:15:58.185Z,4.00
2019-01-17T03:18:30.684Z,4.10
2019-01-17T03:21:03.096Z,4.20
2019-01-17T03:23:35.300Z,4.20
2019-01-17T03:26:07.717Z,4.30
2019-01-17T03:28:40.017Z,4.30
2019-01-17T03:31:12.528Z,4.30
2019-01-17T03:33:44.741Z,4.30
2019-01-17T03:36:17.156Z,4.30
2019-01-17T03:38:49.460Z,4.40
2019-01-17T03:41:21.774Z,4.40
2019-01-17T03:43:54.181Z,4.50
2019-01-17T03:46:26.499Z,4.50
2019-01-17T03:48:58.823Z,4.50
2019-01-17T03:51:31.254Z,4.50
2019-01-17T03:54:03.573Z,4.50
2019-01-17T03:56:36.087Z,4.60
2019-01-17T03:59:08.554Z,4.60
2019-01-17T04:01:41.078Z,4.60
2019-01-17T04:04:13.491Z,4.60
2019-01-17T04:06:45.689Z,4.60
2019-01-17T04:09:17.986Z,4.70
2019-01-17T04:11:50.402Z,4.60
2019-01-17T04:14:22.816Z,4.70
2019-01-17T04:16:55.132Z,4.70
2019-01-17T04:19:27.436Z,4.70
2019-01-17T04:21:59.658Z,4.70
2019-01-17T04:24:31.855Z,4.70
2019-01-17T04:27:04.066Z,4.70
2019-01-17T04:29:36.379Z,4.80
2019-01-17T04:32:08.784Z,4.80
2019-01-17T04:34:40.984Z,4.80
2019-01-17T04:37:13.337Z,4.80
2019-01-17T04:39:45.636Z,4.90
2019-01-17T04:42:17.949Z,4.80
2019-01-17T04:44:50.257Z,4.80
2019-01-17T04:47:22.480Z,4.80
2019-01-17T04:49:54.683Z,4.80
2019-01-17T04:52:27.091Z,4.70
2019-01-17T04:55:05.027Z,4.60
2019-01-17T04:57:33.346Z,4.50
2019-01-17T05:00:08.335Z,4.50
2019-01-17T05:02:40.667Z,4.50
2019-01-17T05:05:13.684Z,4.50
2019-01-17T05:07:46.093Z,4.40
2019-01-17T05:10:18.886Z,4.50
2019-01-17T05:12:51.205Z,4.40
2019-01-17T05:15:23.515Z,4.40
2019-01-17T05:17:55.829Z,4.40
2019-01-17T05:20:28.130Z,4.40
2019-01-17T05:23:00.436Z,4.40
2019-01-17T05:25:32.815Z,4.40
2019-01-17T05:28:05.336Z,4.40
2019-01-17T05:30:37.635Z,4.40
2019-01-17T05:33:10.032Z,4.40
2019-01-17T05:35:42.326Z,4.50
2019-01-17T05:38:14.746Z,4.50
2019-01-17T05:40:47.258Z,4.50
2019-01-17T05:43:19.573Z,4.50
2019-01-17T05:45:51.884Z,4.60
2019-01-17T05:48:24.189Z,4.60
2019-01-17T05:50:56.459Z,4.60
2019-01-17T05:53:28.660Z,4.60
2019-01-17T05:56:00.970Z,4.60
2019-01-17T05:58:33.274Z,4.70
2019-01-17T06:01:05.691Z,4.70
2019-01-17T06:03:38.104Z,4.70
2019-01-17T06:06:10.507Z,4.70
2019-01-17T06:08:42.813Z,4.70
2019-01-17T06:11:15.016Z,4.60
2019-01-17T06:13:47.527Z,4.50
2019-01-17T06:16:19.932Z,4.50
2019-01-17T06:18:52.346Z,4.50
2019-01-17T06:21:24.648Z,4.50
2019-01-17T06:23:57.066Z,4.40
2019-01-17T06:26:29.472Z,4.50
2019-01-17T06:29:01.694Z,4.50
2019-01-17T06:31:33.909Z,4.50
2019-01-17T06:34:06.421Z,4.50
2019-01-17T06:36:38.723Z,4.50
2019-01-17T06:39:11.500Z,4.60
2019-01-17T06:41:44.025Z,4.60
2019-01-17T06:44:20.216Z,4.60
2019-01-17T06:46:50.245Z,4.70
2019-01-17T06:49:22.451Z,4.70
2019-01-17T06:51:54.652Z,4.70
2019-01-17T06:54:27.065Z,4.80
2019-01-17T06:56:59.325Z,4.90
2019-01-17T06:59:31.537Z,4.90
2019-01-17T07:02:04.043Z,4.80
2019-01-17T07:04:36.243Z,4.90
2019-01-17T07:07:08.454Z,4.90
2019-01-17T07:09:40.864Z,4.90
2019-01-17T07:12:13.168Z,5.00
2019-01-17T07:14:45.379Z,5.00
2019-01-17T07:17:17.681Z,5.00
2019-01-17T07:19:49.895Z,5.00
2019-01-17T07:22:22.197Z,5.00
2019-01-17T07:24:54.606Z,5.00
2019-01-17T07:27:26.908Z,5.00
2019-01-17T07:29:59.362Z,5.00
2019-01-17T07:32:31.707Z,5.00
2019-01-17T07:35:04.319Z,5.00
2019-01-17T07:37:36.727Z,5.10
2019-01-17T07:40:09.380Z,5.10
2019-01-17T07:42:41.788Z,5.10
2019-01-17T07:45:26.894Z,5.10
2019-01-17T07:47:59.413Z,5.10
2019-01-17T07:50:31.834Z,5.10
2019-01-17T07:53:04.147Z,5.10
2019-01-17T07:55:36.601Z,5.10
2019-01-17T07:58:09.009Z,5.10
2019-01-17T08:00:41.327Z,5.10
2019-01-17T08:03:13.633Z,5.10
2019-01-17T08:05:45.944Z,5.10
2019-01-17T08:08:18.258Z,5.10
2019-01-17T08:10:50.464Z,5.10
2019-01-17T08:13:22.858Z,5.10
2019-01-17T08:15:55.171Z,5.10
2019-01-17T08:18:27.472Z,5.10
2019-01-17T08:20:59.980Z,5.00
2019-01-17T08:23:34.709Z,5.00
2019-01-17T08:26:06.588Z,5.10
2019-01-17T08:28:38.996Z,5.10
2019-01-17T08:31:11.200Z,5.10
2019-01-17T08:33:43.502Z,5.10
2019-01-17T08:36:16.019Z,5.10
2019-01-17T08:38:48.425Z,5.10
2019-01-17T08:41:20.740Z,5.10
2019-01-17T08:43:52.939Z,5.10
2019-01-17T08:46:25.151Z,5.20
2019-01-17T08:48:57.331Z,5.20
2019-01-17T08:51:29.740Z,5.20
2019-01-17T08:54:02.048Z,5.30
2019-01-17T08:56:34.697Z,5.30
2019-01-17T08:59:07.359Z,5.30
2019-01-17T09:01:39.818Z,5.30
2019-01-17T09:04:12.139Z,5.30
2019-01-17T09:06:44.438Z,5.30
2019-01-17T09:09:16.641Z,5.30
2019-01-17T09:11:49.046Z,5.30
2019-01-17T09:14:21.256Z,5.20
2019-01-17T09:16:53.565Z,5.20
2019-01-17T09:19:26.041Z,5.20
2019-01-17T09:21:58.251Z,5.20
2019-01-17T09:24:30.561Z,5.10
2019-01-17T09:27:02.879Z,5.20
2019-01-17T09:29:35.099Z,5.20
2019-01-17T09:32:07.813Z,5.20
2019-01-17T09:34:40.027Z,5.20
2019-01-17T09:37:12.328Z,5.20
2019-01-17T09:39:44.544Z,5.10
2019-01-17T09:42:16.754Z,5.10
2019-01-17T09:44:48.955Z,5.10
2019-01-17T09:47:21.362Z,5.00
2019-01-17T09:49:53.573Z,5.00
2019-01-17T09:52:25.797Z,5.00
2019-01-17T09:54:58.208Z,5.00
2019-01-17T09:57:30.527Z,5.00
2019-01-17T10:00:02.931Z,5.00
2019-01-17T10:02:35.176Z,5.00
2019-01-17T10:05:07.782Z,5.00
2019-01-17T10:07:40.098Z,5.00
2019-01-17T10:10:16.202Z,5.00
2019-01-17T10:12:48.818Z,5.00
2019-01-17T10:15:28.709Z,5.00
2019-01-17T10:18:59.007Z,5.00
2019-01-17T10:22:25.967Z,5.10
2019-01-17T10:25:45.361Z,5.10
2019-01-17T10:29:24.500Z,5.10
2019-01-17T10:32:55.768Z,5.10
2019-01-17T10:36:07.213Z,5.20
2019-01-17T10:39:28.660Z,5.10
2019-01-17T10:42:42.317Z,5.10
2019-01-17T10:46:40.081Z,5.10
2019-01-17T10:50:14.784Z,5.20
2019-01-17T10:54:10.166Z,5.20
2019-01-17T10:57:49.922Z,5.20
2019-01-17T11:01:11.408Z,5.20
2019-01-17T11:05:10.198Z,5.20
2019-01-17T11:08:21.343Z,5.30
2019-01-17T11:11:58.591Z,5.40
2019-01-17T11:15:31.956Z,5.50
2019-01-17T11:19:25.131Z,5.50
2019-01-17T11:22:49.351Z,5.60
2019-01-17T11:26:10.412Z,5.60
2019-01-17T11:29:30.711Z,5.60
2019-01-17T11:33:20.829Z,5.70
2019-01-17T11:37:07.123Z,5.70
2019-01-17T11:40:29.900Z,5.70
2019-01-17T11:44:03.388Z,5.80
2019-01-17T11:47:17.723Z,5.90
2019-01-17T11:50:32.954Z,5.90
2019-01-17T11:53:53.079Z,5.90
2019-01-17T11:57:13.827Z,5.90
2019-01-17T12:00:44.682Z,6.00
2019-01-17T12:04:30.477Z,6.00
2019-01-17T12:07:09.519Z,6.00
2019-01-17T12:09:41.826Z,6.00
2019-01-17T12:12:18.280Z,6.00
2019-01-17T12:14:50.656Z,6.00
2019-01-17T12:17:22.818Z,6.10
2019-01-17T12:19:55.028Z,6.10
2019-01-17T12:22:27.500Z,6.10
2019-01-17T12:24:59.735Z,6.10
2019-01-17T12:27:31.898Z,6.10
2019-01-17T12:30:05.410Z,6.10
2019-01-17T12:32:37.571Z,6.10
2019-01-17T12:35:11.833Z,6.10
2019-01-17T12:37:44.301Z,6.10
2019-01-17T12:40:17.660Z,6.10
2019-01-17T12:42:50.027Z,6.10
2019-01-17T12:45:22.303Z,6.10
2019-01-17T12:47:54.467Z,6.10
2019-01-17T12:50:26.876Z,6.20
2019-01-17T12:52:59.136Z,6.20
2019-01-17T12:55:31.387Z,6.20
2019-01-17T12:58:03.540Z,6.20
2019-01-17T13:00:35.861Z,6.30
2019-01-17T13:03:08.215Z,6.30
2019-01-17T13:05:40.730Z,6.30
2019-01-17T13:08:12.983Z,6.30
2019-01-17T13:10:45.384Z,6.30
2019-01-17T13:13:17.647Z,6.30
2019-01-17T13:15:50.030Z,6.30
2019-01-17T13:18:22.191Z,6.30
2019-01-17T13:20:54.509Z,6.20
2019-01-17T13:23:26.877Z,6.20
2019-01-17T13:25:59.387Z,6.20
2019-01-17T13:28:31.738Z,6.20
2019-01-17T13:31:04.057Z,6.20
2019-01-17T13:33:36.222Z,6.20
2019-01-17T13:36:12.556Z,6.20
2019-01-17T13:38:44.816Z,6.20
2019-01-17T13:41:17.219Z,6.20
2019-01-17T13:43:49.381Z,6.30
2019-01-17T13:46:21.786Z,6.20
2019-01-17T13:48:54.045Z,6.20
2019-01-17T13:51:26.342Z,6.20
2019-01-17T13:53:58.600Z,6.20
2019-01-17T13:56:31.251Z,6.20
2019-01-17T13:59:03.637Z,6.20
2019-01-17T14:01:35.997Z,6.20
2019-01-17T14:04:08.362Z,6.20
2019-01-17T14:06:40.665Z,6.20
2019-01-17T14:09:13.032Z,6.20
2019-01-17T14:11:45.250Z,6.20
2019-01-17T14:14:17.514Z,6.20
2019-01-17T14:16:49.722Z,6.30
2019-01-17T14:19:22.078Z,6.30
2019-01-17T14:21:54.491Z,6.30
2019-01-17T14:24:26.657Z,6.30
2019-01-17T14:26:58.967Z,6.40
2019-01-17T14:29:31.122Z,6.40
2019-01-17T14:32:03.612Z,6.40
2019-01-17T14:34:35.756Z,6.40
2019-01-17T14:37:08.185Z,6.40
2019-01-17T14:39:40.549Z,6.30
2019-01-17T14:42:12.855Z,6.30
2019-01-17T14:44:45.012Z,6.30
2019-01-17T14:47:17.328Z,6.30
2019-01-17T14:49:49.482Z,6.40
2019-01-17T14:52:21.695Z,6.40
2019-01-17T14:54:53.950Z,6.40
2019-01-17T14:57:26.507Z,6.30
2019-01-17T14:59:58.661Z,6.30
2019-01-17T15:02:31.176Z,6.20
2019-01-17T15:05:03.340Z,6.20
2019-01-17T15:07:35.543Z,6.20
2019-01-17T15:10:17.868Z,6.20
2019-01-17T15:12:50.473Z,6.30
2019-01-17T15:15:22.925Z,6.20
2019-01-17T15:17:55.335Z,6.20
2019-01-17T15:20:27.697Z,6.20
2019-01-17T15:23:00.001Z,6.10
2019-01-17T15:25:33.002Z,6.10
2019-01-17T15:28:05.948Z,6.00
2019-01-17T15:30:38.407Z,6.00
2019-01-17T15:33:10.818Z,5.90
2019-01-17T15:35:43.169Z,5.90
2019-01-17T15:38:15.471Z,5.90
2019-01-17T15:40:47.823Z,5.90
2019-01-17T15:43:20.029Z,5.80
2019-01-17T15:45:52.485Z,5.90
2019-01-17T15:48:24.801Z,5.80
2019-01-17T15:50:57.175Z,5.90
2019-01-17T15:53:29.540Z,5.90
2019-01-17T15:56:01.842Z,5.90
2019-01-17T15:58:34.289Z,5.90
2019-01-17T16:01:07.188Z,5.90
2019-01-17T16:03:39.402Z,5.90
2019-01-17T16:06:12.769Z,5.80
2019-01-17T16:08:45.540Z,5.70
2019-01-17T16:11:17.703Z,5.70
2019-01-17T16:13:49.919Z,5.60
2019-01-17T16:16:22.179Z,5.50
2019-01-17T16:18:54.380Z,5.40
2019-01-17T16:21:26.633Z,5.40
2019-01-17T16:23:58.946Z,5.30
2019-01-17T16:26:31.203Z,5.20
2019-01-17T16:29:03.407Z,5.20
2019-01-17T16:31:35.663Z,5.10
2019-01-17T16:34:07.985Z,5.20
2019-01-17T16:36:40.253Z,5.20
2019-01-17T16:39:12.555Z,5.20
2019-01-17T16:41:45.015Z,5.10
2019-01-17T16:44:17.216Z,5.10
2019-01-17T16:46:49.372Z,5.10
2019-01-17T16:49:21.788Z,5.10
2019-01-17T16:51:54.144Z,5.10
2019-01-17T16:54:26.360Z,5.10
2019-01-17T16:56:58.514Z,5.10
2019-01-17T16:59:30.719Z,5.00
2019-01-17T17:02:02.934Z,4.90
2019-01-17T17:04:35.246Z,4.90
2019-01-17T17:07:07.712Z,4.90
2019-01-17T17:09:40.022Z,4.90
2019-01-17T17:12:12.277Z,4.90
2019-01-17T17:14:44.604Z,4.80
2019-01-17T17:17:16.927Z,4.80
2019-01-17T17:19:49.144Z,4.80
2019-01-17T17:22:21.312Z,4.80
2019-01-17T17:24:53.518Z,4.70
2019-01-17T17:27:25.871Z,4.70
2019-01-17T17:29:58.070Z,4.70
2019-01-17T17:32:30.423Z,4.60
2019-01-17T17:35:02.632Z,4.60
2019-01-17T17:37:34.886Z,4.60
2019-01-17T17:40:12.407Z,4.60
2019-01-17T17:42:44.834Z,4.50
2019-01-17T17:45:17.245Z,4.60
2019-01-17T17:47:49.507Z,4.60
2019-01-17T17:50:22.169Z,4.60
2019-01-17T17:52:54.532Z,4.60
2019-01-17T17:55:26.847Z,4.60
2019-01-17T17:58:02.324Z,4.60
2019-01-17T18:01:01.057Z,4.70
2019-01-17T18:03:33.216Z,4.70
2019-01-17T18:06:05.524Z,4.70
2019-01-17T18:08:37.685Z,4.80
2019-01-17T18:11:11.477Z,4.80
2019-01-17T18:13:43.750Z,4.80
2019-01-17T18:16:15.977Z,4.80
2019-01-17T18:18:48.338Z,4.70
2019-01-17T18:21:20.844Z,4.70
2019-01-17T18:23:53.217Z,4.70
2019-01-17T18:26:25.526Z,4.60
2019-01-17T18:28:57.685Z,4.60
2019-01-17T18:31:29.990Z,4.50
2019-01-17T18:34:02.261Z,4.50
2019-01-17T18:36:34.668Z,4.40
2019-01-17T18:39:13.914Z,4.30
2019-01-17T18:41:46.230Z,3.90
2019-01-17T18:44:18.587Z,3.60
2019-01-17T18:46:50.901Z,3.40
2019-01-17T18:49:23.161Z,3.30
2019-01-17T18:51:55.448Z,3.10
2019-01-17T18:54:27.819Z,3.10
2019-01-17T18:57:00.128Z,3.00
2019-01-17T18:59:32.605Z,2.90
2019-01-17T19:02:05.217Z,2.90
2019-01-17T19:04:37.389Z,2.90
2019-01-17T19:07:09.790Z,2.90
2019-01-17T19:09:42.045Z,3.00
2019-01-17T19:12:14.529Z,3.00
2019-01-17T19:14:46.949Z,3.00
2019-01-17T19:17:19.251Z,3.00
2019-01-17T19:19:51.413Z,3.00
2019-01-17T19:22:24.768Z,3.00
2019-01-17T19:24:57.004Z,3.00
2019-01-17T19:27:29.220Z,3.00
2019-01-17T19:30:01.568Z,3.00
2019-01-17T19:32:34.047Z,3.00
2019-01-17T19:35:07.835Z,3.00
2019-01-17T19:37:40.457Z,3.00
2019-01-17T19:40:16.499Z,3.00
2019-01-17T19:42:48.987Z,3.10
2019-01-17T19:45:21.502Z,3.10
2019-01-17T19:47:54.033Z,3.20
2019-01-17T19:50:35.467Z,3.20
2019-01-17T19:53:09.682Z,3.20
2019-01-17T19:55:42.241Z,3.20
2019-01-17T19:58:14.453Z,3.20
2019-01-17T20:00:46.659Z,3.20
2019-01-17T20:03:18.969Z,3.20
2019-01-17T20:05:51.376Z,3.20
2019-01-17T20:08:23.688Z,3.20
2019-01-17T20:10:56.064Z,3.10
2019-01-17T20:13:28.276Z,3.10
2019-01-17T20:16:00.770Z,3.20
2019-01-17T20:18:33.081Z,3.20
2019-01-17T20:21:05.487Z,3.20
2019-01-17T20:23:38.004Z,3.20
2019-01-17T20:26:10.455Z,3.20
2019-01-17T20:28:42.765Z,3.20
2019-01-17T20:31:15.026Z,3.20
2019-01-17T20:33:47.426Z,3.20
2019-01-17T20:36:19.638Z,3.20
2019-01-17T20:38:51.853Z,3.20
2019-01-17T20:41:24.158Z,3.20
2019-01-17T20:43:56.436Z,3.20
2019-01-17T20:46:28.833Z,3.10
2019-01-17T20:49:01.032Z,3.10
2019-01-17T20:51:33.442Z,3.00
2019-01-17T20:54:05.931Z,3.00
2019-01-17T20:56:38.857Z,2.90
2019-01-17T20:59:11.068Z,2.90
2019-01-17T21:02:04.296Z,2.90
2019-01-17T21:04:36.500Z,2.90
2019-01-17T21:07:08.768Z,2.80
2019-01-17T21:09:41.076Z,2.80
2019-01-17T21:12:13.333Z,2.70
2019-01-17T21:14:45.537Z,2.70
2019-01-17T21:17:18.003Z,2.60
2019-01-17T21:19:50.312Z,2.60
2019-01-17T21:22:22.700Z,2.50
2019-01-17T21:24:54.962Z,2.50
2019-01-17T21:27:27.121Z,2.50
2019-01-17T21:29:59.323Z,2.50
2019-01-17T21:32:31.590Z,2.40
2019-01-17T21:35:03.906Z,2.50
2019-01-17T21:37:36.155Z,2.50
2019-01-17T21:40:11.598Z,2.50
2019-01-17T21:42:43.869Z,2.50
2019-01-17T21:45:18.374Z,2.50
2019-01-17T21:47:50.724Z,2.40
2019-01-17T21:50:26.835Z,2.40
2019-01-17T21:52:59.199Z,2.30
2019-01-17T21:55:31.648Z,2.30
2019-01-17T21:58:03.802Z,2.20
2019-01-17T22:00:36.118Z,2.20
2019-01-17T22:03:08.371Z,2.20
2019-01-17T22:05:40.766Z,2.20
2019-01-17T22:08:13.225Z,2.20
2019-01-17T22:10:45.530Z,2.20
2019-01-17T22:13:17.791Z,2.20
2019-01-17T22:15:50.143Z,2.10
2019-01-17T22:18:22.720Z,2.20
2019-01-17T22:20:55.165Z,2.20
2019-01-17T22:23:27.469Z,2.20
2019-01-17T22:25:59.683Z,2.20
2019-01-17T22:28:31.844Z,2.20
2019-01-17T22:31:04.258Z,2.20
2019-01-17T22:33:36.562Z,2.20
2019-01-17T22:36:09.007Z,2.20
2019-01-17T22:38:41.159Z,2.20
2019-01-17T22:41:13.536Z,2.20
2019-01-17T22:43:45.791Z,2.20
2019-01-17T22:46:17.994Z,2.20
2019-01-17T22:48:50.151Z,2.20
2019-01-17T22:51:22.457Z,2.20
2019-01-17T22:53:54.612Z,2.20
2019-01-17T22:56:26.872Z,2.20
2019-01-17T22:58:59.145Z,2.20
2019-01-17T23:01:32.362Z,2.20
2019-01-17T23:04:07.439Z,2.20
2019-01-17T23:06:39.645Z,2.20
2019-01-17T23:09:12.008Z,2.20
2019-01-17T23:11:44.301Z,2.20
2019-01-17T23:14:16.764Z,2.20
2019-01-17T23:16:49.069Z,2.20
2019-01-17T23:19:21.428Z,2.20
2019-01-17T23:21:53.737Z,2.20
2019-01-17T23:24:26.009Z,2.20
2019-01-17T23:26:58.212Z,2.20
2019-01-17T23:29:30.472Z,2.10
2019-01-17T23:32:02.768Z,2.20
2019-01-17T23:34:35.267Z,2.20
2019-01-17T23:37:07.568Z,2.20
2019-01-17T23:39:39.929Z,2.10
2019-01-17T23:42:12.237Z,2.10
2019-01-17T23:44:44.401Z,2.10
2019-01-17T23:47:16.707Z,2.10
2019-01-17T23:49:48.860Z,2.00
2019-01-17T23:52:21.164Z,2.00
2019-01-17T23:54:53.570Z,2.00
2019-01-17T23:57:25.929Z,2.00
2019-01-17T23:59:58.342Z,2.10
